createdAt,value
2023-02-27T00:02:25.346Z,17.77
2023-02-27T00:04:52.271Z,19.80
2023-02-27T00:07:18.733Z,17.10
2023-02-27T00:09:45.161Z,17.35
2023-02-27T00:12:12.210Z,16.65
2023-02-27T00:14:38.831Z,16.95
2023-02-27T00:17:05.261Z,17.00
2023-02-27T00:19:31.814Z,17.20
2023-02-27T00:21:58.253Z,16.52
2023-02-27T00:24:24.738Z,16.25
2023-02-27T00:26:51.159Z,16.95
2023-02-27T00:29:20.334Z,18.15
2023-02-27T00:31:46.846Z,18.43
2023-02-27T00:34:13.500Z,17.83
2023-02-27T00:36:40.127Z,17.15
2023-02-27T00:39:06.671Z,17.25
2023-02-27T00:41:33.138Z,17.70
2023-02-27T00:43:59.626Z,18.10
2023-02-27T00:46:26.114Z,17.63
2023-02-27T00:48:52.865Z,16.08
2023-02-27T00:51:20.211Z,16.17
2023-02-27T00:53:46.711Z,15.93
2023-02-27T00:56:13.406Z,17.30
2023-02-27T00:58:39.838Z,16.75
2023-02-27T01:01:06.457Z,16.95
2023-02-27T01:03:33.056Z,17.23
2023-02-27T01:05:59.496Z,16.02
2023-02-27T01:08:25.952Z,16.50
2023-02-27T01:10:55.649Z,15.75
2023-02-27T01:13:22.632Z,16.58
2023-02-27T01:15:49.778Z,16.70
2023-02-27T01:18:16.220Z,16.42
2023-02-27T01:20:43.127Z,16.55
2023-02-27T01:23:09.534Z,16.45
2023-02-27T01:25:35.950Z,17.35
2023-02-27T01:28:02.374Z,17.05
2023-02-27T01:30:28.891Z,17.17
2023-02-27T01:32:55.380Z,17.13
2023-02-27T01:35:21.807Z,17.90
2023-02-27T01:37:48.259Z,17.55
2023-02-27T01:40:14.867Z,16.45
2023-02-27T01:42:41.356Z,17.27
2023-02-27T01:45:27.734Z,17.25
2023-02-27T01:48:03.912Z,17.15
2023-02-27T01:50:31.617Z,16.80
2023-02-27T01:53:01.350Z,17.27
2023-02-27T01:55:32.031Z,16.00
2023-02-27T01:58:00.162Z,17.35
2023-02-27T02:00:27.375Z,17.52
2023-02-27T02:03:07.863Z,15.75
2023-02-27T02:05:34.515Z,25.17
2023-02-27T02:08:01.328Z,18.45
2023-02-27T02:10:29.465Z,20.15
2023-02-27T02:12:56.588Z,17.27
2023-02-27T02:15:29.928Z,18.45
2023-02-27T02:18:20.066Z,17.17
2023-02-27T02:24:15.483Z,16.80
2023-02-27T02:27:03.859Z,17.20
2023-02-27T02:29:52.000Z,19.00
2023-02-27T02:32:41.359Z,18.10
2023-02-27T02:35:45.498Z,16.23
2023-02-27T02:38:24.198Z,16.70
2023-02-27T02:41:01.437Z,18.08
2023-02-27T02:43:38.209Z,16.67
2023-02-27T02:46:16.424Z,17.95
2023-02-27T02:48:58.374Z,16.73
2023-02-27T02:51:30.537Z,17.17
2023-02-27T02:54:04.930Z,16.67
2023-02-27T02:56:56.855Z,17.52
2023-02-27T02:59:32.282Z,18.00
2023-02-27T03:02:04.737Z,16.63
2023-02-27T03:04:40.477Z,18.45
2023-02-27T03:07:13.817Z,20.50
2023-02-27T03:09:49.895Z,18.88
2023-02-27T03:12:21.463Z,19.08
2023-02-27T03:14:59.781Z,16.63
2023-02-27T03:17:47.239Z,16.25
2023-02-27T03:20:24.783Z,17.67
2023-02-27T03:22:56.812Z,16.88
2023-02-27T03:25:27.168Z,18.05
2023-02-27T03:28:07.372Z,17.20
2023-02-27T03:31:00.867Z,17.90
2023-02-27T03:33:35.127Z,18.33
2023-02-27T03:36:21.149Z,18.05
2023-02-27T03:39:06.642Z,18.48
2023-02-27T03:41:37.780Z,17.17
2023-02-27T03:44:46.463Z,17.40
2023-02-27T03:47:15.864Z,16.70
2023-02-27T03:49:42.363Z,17.58
2023-02-27T03:52:09.116Z,17.92
2023-02-27T03:54:39.654Z,18.25
2023-02-27T03:57:08.936Z,17.17
2023-02-27T03:59:37.957Z,19.75
2023-02-27T04:02:04.668Z,21.45
2023-02-27T04:04:32.790Z,24.67
2023-02-27T04:07:24.505Z,23.10
2023-02-27T04:10:14.995Z,20.60
2023-02-27T04:12:59.654Z,19.35
2023-02-27T04:15:41.160Z,18.30
2023-02-27T04:18:29.075Z,16.77
2023-02-27T04:21:36.993Z,16.65
2023-02-27T04:24:32.678Z,19.33
2023-02-27T04:27:11.887Z,18.15
2023-02-27T04:29:57.378Z,19.73
2023-02-27T04:32:43.374Z,19.23
2023-02-27T04:35:20.535Z,18.45
2023-02-27T04:38:02.398Z,18.40
2023-02-27T04:40:39.555Z,18.13
2023-02-27T04:43:10.277Z,18.58
2023-02-27T04:45:41.266Z,18.63
2023-02-27T04:48:16.699Z,18.63
2023-02-27T04:50:51.821Z,18.70
2023-02-27T04:53:24.474Z,18.23
2023-02-27T04:56:04.740Z,17.27
2023-02-27T04:58:41.997Z,17.55
2023-02-27T05:01:14.987Z,17.85
2023-02-27T05:03:47.642Z,16.75
2023-02-27T05:06:17.236Z,18.08
2023-02-27T05:08:58.949Z,18.02
2023-02-27T05:11:43.574Z,17.65
2023-02-27T05:14:28.412Z,17.38
2023-02-27T05:17:03.315Z,16.58
2023-02-27T05:19:32.405Z,17.40
2023-02-27T05:21:58.752Z,18.00
2023-02-27T05:24:44.455Z,17.42
2023-02-27T05:27:25.623Z,17.27
2023-02-27T05:29:55.649Z,17.58
2023-02-27T05:35:19.878Z,16.33
2023-02-27T05:38:09.952Z,16.13
2023-02-27T05:43:16.836Z,15.90
2023-02-27T05:45:46.871Z,15.93
2023-02-27T05:50:52.934Z,16.67
2023-02-27T05:53:22.053Z,18.25
2023-02-27T05:55:54.397Z,16.33
2023-02-27T05:58:32.567Z,18.77
2023-02-27T06:01:01.972Z,18.30
2023-02-27T06:03:31.779Z,17.83
2023-02-27T06:06:04.945Z,19.77
2023-02-27T06:08:31.750Z,19.50
2023-02-27T06:10:58.372Z,18.90
2023-02-27T06:13:26.238Z,18.23
2023-02-27T06:15:53.304Z,17.52
2023-02-27T06:18:20.313Z,18.85
2023-02-27T06:20:47.316Z,18.08
2023-02-27T06:23:13.994Z,19.00
2023-02-27T06:25:42.338Z,17.88
2023-02-27T06:28:10.209Z,17.45
2023-02-27T06:30:37.066Z,18.42
2023-02-27T06:33:04.299Z,19.67
2023-02-27T06:35:31.073Z,17.10
2023-02-27T06:37:57.749Z,17.92
2023-02-27T06:40:24.456Z,16.92
2023-02-27T06:42:51.082Z,17.52
2023-02-27T06:45:18.021Z,19.00
2023-02-27T06:47:44.829Z,17.90
2023-02-27T06:50:14.311Z,18.67
2023-02-27T06:52:41.350Z,19.23
2023-02-27T06:55:09.334Z,18.90
2023-02-27T06:57:36.226Z,18.88
2023-02-27T07:00:04.347Z,22.92
2023-02-27T07:02:32.822Z,23.13
2023-02-27T07:04:59.344Z,25.27
2023-02-27T07:07:33.939Z,22.58
2023-02-27T07:10:08.989Z,20.88
2023-02-27T07:12:35.463Z,20.13
2023-02-27T07:15:01.911Z,20.13
2023-02-27T07:17:28.416Z,21.02
2023-02-27T07:19:54.826Z,20.38
2023-02-27T07:22:21.309Z,19.17
2023-02-27T07:24:47.757Z,20.02
2023-02-27T07:27:14.161Z,20.15
2023-02-27T07:29:40.564Z,21.63
2023-02-27T07:32:07.055Z,21.02
2023-02-27T07:34:33.493Z,23.38
2023-02-27T07:37:00.052Z,20.60
2023-02-27T07:39:26.492Z,20.25
2023-02-27T07:41:52.983Z,20.52
2023-02-27T07:44:19.526Z,20.13
2023-02-27T07:46:47.327Z,21.83
2023-02-27T07:49:14.077Z,20.52
2023-02-27T07:51:40.526Z,21.27
2023-02-27T07:54:06.980Z,21.27
2023-02-27T07:56:33.470Z,20.55
2023-02-27T07:58:59.931Z,22.10
2023-02-27T08:01:26.617Z,19.92
2023-02-27T08:03:53.094Z,21.13
2023-02-27T08:06:19.504Z,20.67
2023-02-27T08:11:28.394Z,19.52
2023-02-27T08:14:00.607Z,21.48
2023-02-27T08:16:28.536Z,21.92
2023-02-27T08:18:55.381Z,20.20
2023-02-27T08:21:22.167Z,21.17
2023-02-27T08:23:48.674Z,20.95
2023-02-27T08:26:15.318Z,21.10
2023-02-27T08:28:41.735Z,20.95
2023-02-27T08:31:08.258Z,22.52
2023-02-27T08:33:34.837Z,23.45
2023-02-27T08:36:01.790Z,23.30
2023-02-27T08:38:28.474Z,24.17
2023-02-27T08:40:55.219Z,23.05
2023-02-27T08:43:23.198Z,22.45
2023-02-27T08:45:50.333Z,23.10
2023-02-27T08:48:18.470Z,22.92
2023-02-27T08:50:45.291Z,23.75
2023-02-27T08:53:12.433Z,23.50
2023-02-27T08:55:38.883Z,23.02
2023-02-27T08:58:05.324Z,23.55
2023-02-27T09:00:32.813Z,23.35
2023-02-27T09:03:00.565Z,21.90
2023-02-27T09:05:27.778Z,21.33
2023-02-27T09:07:54.222Z,21.80
2023-02-27T09:10:20.632Z,21.25
2023-02-27T09:12:49.142Z,20.33
2023-02-27T09:15:15.709Z,21.55
2023-02-27T09:17:42.297Z,20.55
2023-02-27T09:20:10.651Z,20.67
2023-02-27T09:22:37.405Z,19.88
2023-02-27T09:25:04.341Z,20.98
2023-02-27T09:27:30.792Z,19.63
2023-02-27T09:29:57.381Z,19.60
2023-02-27T09:32:24.785Z,19.83
2023-02-27T09:34:51.649Z,18.88
2023-02-27T09:37:21.400Z,18.42
2023-02-27T09:39:47.873Z,17.58
2023-02-27T09:42:28.754Z,17.40
2023-02-27T09:45:05.502Z,16.45
2023-02-27T09:47:42.118Z,16.17
2023-02-27T09:50:31.545Z,15.68
2023-02-27T09:52:59.398Z,14.98
2023-02-27T09:55:30.254Z,14.35
2023-02-27T09:58:31.053Z,14.88
2023-02-27T10:01:09.395Z,13.30
2023-02-27T10:03:57.755Z,12.82
2023-02-27T10:06:36.994Z,12.80
2023-02-27T10:09:42.681Z,12.60
2023-02-27T10:12:15.329Z,12.63
2023-02-27T10:14:52.116Z,12.18
2023-02-27T10:17:27.800Z,9.88
2023-02-27T10:19:55.289Z,11.93
2023-02-27T10:22:28.602Z,10.80
2023-02-27T10:25:02.352Z,10.40
2023-02-27T10:27:30.842Z,10.18
2023-02-27T10:30:27.258Z,9.95
2023-02-27T10:33:08.887Z,10.30
2023-02-27T10:35:38.918Z,10.40
2023-02-27T10:38:16.711Z,10.57
2023-02-27T10:40:45.399Z,10.23
2023-02-27T10:43:16.356Z,10.32
2023-02-27T10:45:43.841Z,10.35
2023-02-27T10:48:11.882Z,10.70
2023-02-27T10:50:44.288Z,11.15
2023-02-27T10:53:21.736Z,12.32
2023-02-27T10:56:02.942Z,11.00
2023-02-27T10:58:40.674Z,11.30
2023-02-27T11:01:10.625Z,10.82
2023-02-27T11:03:41.458Z,11.23
2023-02-27T11:06:30.122Z,11.50
2023-02-27T11:09:20.998Z,11.40
2023-02-27T11:11:47.694Z,12.20
2023-02-27T11:14:27.986Z,12.40
2023-02-27T11:19:39.024Z,11.60
2023-02-27T11:22:20.176Z,11.85
2023-02-27T11:24:48.182Z,11.55
2023-02-27T11:27:22.616Z,12.40
2023-02-27T11:30:04.782Z,12.25
2023-02-27T11:32:48.080Z,12.35
2023-02-27T11:35:38.881Z,12.95
2023-02-27T11:38:19.064Z,12.90
2023-02-27T11:40:54.242Z,12.98
2023-02-27T11:43:25.498Z,12.90
2023-02-27T11:46:04.602Z,12.13
2023-02-27T11:48:47.452Z,12.77
2023-02-27T11:51:54.864Z,12.97
2023-02-27T11:54:32.338Z,13.13
2023-02-27T11:57:04.652Z,12.63
2023-02-27T11:59:31.737Z,13.00
2023-02-27T12:02:05.340Z,13.43
2023-02-27T12:04:50.138Z,12.40
2023-02-27T12:07:38.624Z,12.50
2023-02-27T12:10:10.038Z,11.77
2023-02-27T12:12:45.652Z,10.93
2023-02-27T12:15:51.173Z,10.85
2023-02-27T12:18:30.461Z,11.90
2023-02-27T12:21:06.214Z,11.52
2023-02-27T12:23:41.551Z,11.00
2023-02-27T12:26:17.596Z,10.75
2023-02-27T12:29:02.228Z,11.70
2023-02-27T12:31:32.516Z,11.40
2023-02-27T12:34:25.927Z,11.60
2023-02-27T12:36:53.323Z,12.13
2023-02-27T12:39:22.905Z,11.75
2023-02-27T12:42:15.645Z,11.40
2023-02-27T12:45:03.510Z,12.10
2023-02-27T12:47:32.837Z,11.48
2023-02-27T12:50:20.638Z,11.57
2023-02-27T12:53:14.851Z,11.18
2023-02-27T12:55:47.269Z,11.50
2023-02-27T12:58:16.686Z,10.52
2023-02-27T13:00:48.074Z,10.60
2023-02-27T13:03:22.157Z,10.52
2023-02-27T13:06:03.388Z,10.80
2023-02-27T13:08:55.081Z,10.32
2023-02-27T13:11:39.621Z,10.13
2023-02-27T13:14:11.864Z,10.25
2023-02-27T13:16:46.035Z,11.30
2023-02-27T13:19:23.934Z,11.18
2023-02-27T13:22:04.070Z,10.55
2023-02-27T13:24:32.228Z,10.68
2023-02-27T13:27:11.749Z,10.75
2023-02-27T13:29:41.350Z,10.77
2023-02-27T13:32:44.238Z,11.07
2023-02-27T13:35:32.982Z,11.25
2023-02-27T13:38:03.474Z,10.23
2023-02-27T13:40:39.840Z,11.32
2023-02-27T13:43:26.213Z,11.30
2023-02-27T13:45:55.018Z,10.65
2023-02-27T13:48:33.414Z,10.30
2023-02-27T13:51:01.126Z,10.93
2023-02-27T13:53:28.893Z,10.57
2023-02-27T13:56:00.024Z,10.30
2023-02-27T13:58:26.583Z,10.48
2023-02-27T14:00:59.893Z,10.15
2023-02-27T14:03:30.475Z,11.00
2023-02-27T14:06:01.100Z,11.27
2023-02-27T14:08:46.654Z,10.80
2023-02-27T14:11:20.766Z,10.38
2023-02-27T14:13:50.221Z,11.70
2023-02-27T14:16:39.038Z,11.05
2023-02-27T14:19:11.175Z,10.88
2023-02-27T14:21:52.622Z,11.13
2023-02-27T14:24:23.428Z,10.40
2023-02-27T14:26:52.240Z,10.90
2023-02-27T14:29:30.848Z,10.13
2023-02-27T14:32:00.847Z,11.02
2023-02-27T14:34:28.482Z,10.98
2023-02-27T14:36:59.668Z,10.88
2023-02-27T14:39:37.214Z,11.55
2023-02-27T14:42:06.758Z,10.68
2023-02-27T14:44:45.500Z,11.05
2023-02-27T14:47:23.997Z,10.82
2023-02-27T14:49:50.430Z,11.45
2023-02-27T14:52:29.765Z,11.13
2023-02-27T14:55:30.179Z,10.63
2023-02-27T14:58:14.633Z,10.80
2023-02-27T15:00:42.546Z,11.05
2023-02-27T15:03:17.828Z,10.70
2023-02-27T15:05:45.499Z,11.32
2023-02-27T15:08:34.789Z,11.05
2023-02-27T15:11:02.482Z,11.23
2023-02-27T15:13:32.104Z,10.93
2023-02-27T15:16:21.684Z,11.10
2023-02-27T15:18:52.954Z,10.98
2023-02-27T15:21:21.972Z,10.25
2023-02-27T15:23:57.512Z,10.55
2023-02-27T15:26:24.992Z,11.30
2023-02-27T15:28:51.713Z,10.90
2023-02-27T15:31:22.577Z,11.57
2023-02-27T15:33:50.510Z,12.07
2023-02-27T15:36:21.827Z,11.65
2023-02-27T15:39:19.415Z,11.60
2023-02-27T15:41:58.980Z,12.15
2023-02-27T15:44:42.411Z,13.27
2023-02-27T15:47:12.922Z,12.50
2023-02-27T15:49:39.560Z,12.10
2023-02-27T15:52:17.314Z,13.05
2023-02-27T15:54:51.707Z,12.23
2023-02-27T15:57:20.728Z,12.18
2023-02-27T15:59:47.408Z,12.73
2023-02-27T16:02:23.326Z,12.77
2023-02-27T16:04:50.406Z,13.38
2023-02-27T16:07:22.943Z,12.88
2023-02-27T16:10:06.241Z,12.38
2023-02-27T16:12:37.119Z,12.45
2023-02-27T16:15:24.526Z,12.25
2023-02-27T16:17:54.508Z,12.18
2023-02-27T16:20:30.424Z,13.57
2023-02-27T16:23:16.002Z,12.45
2023-02-27T16:25:58.971Z,12.43
2023-02-27T16:28:31.551Z,12.93
2023-02-27T16:30:58.211Z,13.20
2023-02-27T16:33:30.269Z,12.98
2023-02-27T16:36:19.706Z,12.98
2023-02-27T16:38:46.626Z,12.60
2023-02-27T16:41:17.193Z,12.82
2023-02-27T16:43:46.157Z,13.98
2023-02-27T16:46:19.925Z,13.40
2023-02-27T16:49:00.735Z,13.68
2023-02-27T16:51:34.583Z,12.63
2023-02-27T16:54:01.083Z,13.38
2023-02-27T16:56:37.660Z,12.48
2023-02-27T16:59:04.413Z,13.18
2023-02-27T17:01:33.005Z,13.25
2023-02-27T17:04:00.478Z,13.60
2023-02-27T17:06:27.478Z,12.77
2023-02-27T17:08:56.285Z,13.48
2023-02-27T17:11:22.805Z,12.48
2023-02-27T17:13:49.244Z,13.05
2023-02-27T17:16:15.949Z,12.82
2023-02-27T17:18:42.437Z,12.35
2023-02-27T17:21:08.936Z,13.25
2023-02-27T17:23:35.335Z,13.30
2023-02-27T17:26:01.752Z,13.48
2023-02-27T17:28:31.275Z,12.45
2023-02-27T17:30:58.002Z,13.52
2023-02-27T17:33:24.449Z,13.57
2023-02-27T17:35:52.878Z,12.80
2023-02-27T17:38:19.348Z,12.50
2023-02-27T17:40:45.864Z,13.80
2023-02-27T17:43:12.396Z,14.40
2023-02-27T17:45:38.908Z,14.40
2023-02-27T17:48:05.621Z,16.67
2023-02-27T17:50:32.417Z,17.08
2023-02-27T17:52:58.832Z,16.42
2023-02-27T17:55:25.338Z,16.98
2023-02-27T17:57:51.950Z,18.30
2023-02-27T18:00:18.799Z,18.25
2023-02-27T18:02:45.410Z,16.02
2023-02-27T18:05:12.083Z,15.65
2023-02-27T18:07:38.945Z,14.82
2023-02-27T18:10:06.966Z,15.43
2023-02-27T18:12:33.955Z,15.82
2023-02-27T18:15:00.962Z,15.95
2023-02-27T18:17:27.988Z,16.05
2023-02-27T18:19:54.475Z,16.25
2023-02-27T18:22:22.047Z,15.93
2023-02-27T18:24:49.384Z,19.27
2023-02-27T18:27:15.823Z,18.08
2023-02-27T18:29:43.744Z,16.95
2023-02-27T18:32:10.502Z,20.23
2023-02-27T18:34:38.902Z,21.40
2023-02-27T18:37:05.285Z,18.05
2023-02-27T18:39:31.730Z,20.85
2023-02-27T18:41:58.490Z,18.52
2023-02-27T18:44:25.089Z,18.00
2023-02-27T18:46:51.635Z,19.52
2023-02-27T18:49:18.056Z,18.58
2023-02-27T18:51:44.450Z,21.42
2023-02-27T18:54:13.524Z,20.60
2023-02-27T18:56:40.631Z,19.77
2023-02-27T18:59:07.592Z,18.73
2023-02-27T19:01:36.934Z,17.75
2023-02-27T19:04:05.894Z,19.87
2023-02-27T19:06:34.605Z,18.33
2023-02-27T19:09:01.235Z,19.23
2023-02-27T19:11:33.798Z,18.50
2023-02-27T19:14:02.593Z,18.98
2023-02-27T19:16:30.615Z,18.63
2023-02-27T19:18:58.849Z,17.33
2023-02-27T19:21:26.824Z,18.17
2023-02-27T19:23:53.765Z,17.40
2023-02-27T19:26:21.500Z,17.50
2023-02-27T19:28:53.809Z,16.80
2023-02-27T19:31:22.389Z,16.38
2023-02-27T19:33:49.082Z,15.30
2023-02-27T19:36:18.202Z,14.98
2023-02-27T19:38:44.678Z,15.77
2023-02-27T19:41:13.974Z,15.48
2023-02-27T19:43:41.315Z,13.63
2023-02-27T19:46:10.960Z,13.80
2023-02-27T19:48:38.317Z,15.65
2023-02-27T19:51:07.142Z,13.10
2023-02-27T19:53:35.820Z,12.75
2023-02-27T19:56:04.836Z,13.35
2023-02-27T19:58:31.758Z,13.13
2023-02-27T20:01:00.773Z,13.05
2023-02-27T20:03:29.090Z,12.65
2023-02-27T20:05:56.462Z,13.30
2023-02-27T20:08:23.360Z,13.82
2023-02-27T20:11:08.135Z,13.73
2023-02-27T20:13:34.612Z,12.82
2023-02-27T20:16:08.051Z,14.77
2023-02-27T20:18:36.076Z,15.20
2023-02-27T20:21:04.052Z,15.30
2023-02-27T20:23:31.698Z,14.07
2023-02-27T20:25:58.602Z,15.45
2023-02-27T20:28:25.199Z,15.30
2023-02-27T20:30:52.173Z,14.70
2023-02-27T20:33:18.900Z,15.02
2023-02-27T20:35:45.749Z,14.63
2023-02-27T20:38:12.416Z,14.50
2023-02-27T20:40:38.784Z,13.30
2023-02-27T20:43:05.359Z,13.40
2023-02-27T20:45:31.835Z,13.43
2023-02-27T20:47:58.497Z,13.70
2023-02-27T20:50:24.887Z,13.40
2023-02-27T20:52:54.009Z,14.48
2023-02-27T20:55:20.722Z,14.18
2023-02-27T20:57:47.246Z,14.45
2023-02-27T21:00:15.804Z,15.00
2023-02-27T21:02:42.423Z,14.70
2023-02-27T21:05:09.210Z,15.07
2023-02-27T21:07:35.955Z,14.13
2023-02-27T21:10:02.470Z,13.95
2023-02-27T21:12:28.969Z,14.73
2023-02-27T21:14:56.008Z,14.57
2023-02-27T21:17:24.846Z,14.10
2023-02-27T21:19:51.796Z,13.98
2023-02-27T21:22:18.194Z,13.63
2023-02-27T21:24:46.465Z,14.13
2023-02-27T21:27:12.922Z,14.65
2023-02-27T21:29:39.314Z,16.08
2023-02-27T21:32:07.118Z,15.35
2023-02-27T21:34:33.586Z,15.32
2023-02-27T21:37:02.544Z,14.18
2023-02-27T21:39:29.118Z,15.30
2023-02-27T21:41:55.563Z,15.63
2023-02-27T21:44:26.179Z,14.98
2023-02-27T21:46:55.794Z,14.63
2023-02-27T21:49:28.391Z,15.40
2023-02-27T21:51:55.479Z,15.50
2023-02-27T21:54:22.579Z,14.55
2023-02-27T21:56:49.551Z,14.80
2023-02-27T21:59:17.283Z,16.42
2023-02-27T22:01:47.451Z,15.40
2023-02-27T22:06:40.914Z,14.63
2023-02-27T22:09:07.941Z,14.27
2023-02-27T22:11:35.128Z,14.27
2023-02-27T22:14:03.593Z,13.98
2023-02-27T22:16:30.072Z,14.90
2023-02-27T22:18:57.625Z,15.38
2023-02-27T22:21:25.968Z,14.25
2023-02-27T22:23:52.854Z,14.18
2023-02-27T22:26:23.952Z,13.98
2023-02-27T22:28:52.132Z,14.18
2023-02-27T22:31:23.318Z,13.98
2023-02-27T22:33:52.561Z,13.85
2023-02-27T22:36:21.818Z,13.60
2023-02-27T22:38:48.630Z,12.75
2023-02-27T22:41:26.214Z,13.38
2023-02-27T22:43:53.045Z,13.15
2023-02-27T22:46:31.747Z,13.02
2023-02-27T22:49:03.078Z,13.25
2023-02-27T22:51:31.046Z,12.13
2023-02-27T22:53:59.889Z,12.60
2023-02-27T22:56:26.415Z,13.15
2023-02-27T22:58:53.313Z,12.95
2023-02-27T23:01:25.386Z,12.77
2023-02-27T23:03:53.465Z,12.52
2023-02-27T23:06:23.626Z,13.52
2023-02-27T23:08:50.057Z,13.88
2023-02-27T23:11:18.050Z,13.88
2023-02-27T23:13:44.712Z,14.10
2023-02-27T23:16:13.536Z,13.85
2023-02-27T23:18:48.419Z,13.73
2023-02-27T23:21:20.897Z,16.42
2023-02-27T23:23:47.751Z,14.80
2023-02-27T23:26:14.282Z,15.40
2023-02-27T23:28:41.407Z,13.55
2023-02-27T23:31:09.246Z,12.68
2023-02-27T23:33:35.723Z,12.43
2023-02-27T23:36:02.742Z,11.88
2023-02-27T23:38:29.718Z,11.52
2023-02-27T23:40:56.589Z,10.77
2023-02-27T23:43:42.368Z,11.50
2023-02-27T23:46:11.249Z,11.10
2023-02-27T23:48:38.028Z,11.32
2023-02-27T23:51:06.204Z,11.20
2023-02-27T23:53:33.776Z,10.98
2023-02-27T23:56:00.279Z,10.95
2023-02-27T23:58:26.780Z,11.45
